Time;durP1;ratioP1;P1;durP2;ratioP2;P2;SDS_P1;SDS_P2;PMS_P1;PMS_P2;Temp;Humidity;BMP_temperature;BMP_pressure;BME280_temperature;BME280_humidity;BME280_pressure;Samples;Min_cycle;Max_cycle;Signal;HPM_P1;HPM_P2
2023/09/05 00:01:53;;;;;;;3.50;3.30;;;;;;;-144.30;89.68;85114.16;5090228;28;20203;-57
2023/09/05 00:04:20;;;;;;;3.30;3.10;;;;;;;-144.30;89.84;85122.09;5090853;28;20199;-57
2023/09/05 00:06:48;;;;;;;2.70;2.60;;;;;;;-144.30;90.00;85141.97;5090850;28;20233;-50
2023/09/05 00:09:18;;;;;;;2.95;2.75;;;;;;;-144.30;89.66;85124.09;5091126;28;20191;-50
2023/09/05 00:11:45;;;;;;;3.30;3.10;;;;;;;-144.30;89.59;85140.00;5090768;28;20231;-57
2023/09/05 00:14:12;;;;;;;3.10;2.90;;;;;;;-144.30;90.12;85128.06;5090722;28;20233;-57
2023/09/05 00:16:39;;;;;;;3.28;3.05;;;;;;;-144.30;90.05;85145.97;5090505;28;20593;-57
2023/09/05 00:19:06;;;;;;;4.03;3.72;;;;;;;-144.30;90.18;85257.28;5090509;28;20219;-57
2023/09/05 00:21:33;;;;;;;3.22;3.03;;;;;;;-144.30;90.31;85143.97;5090758;28;20422;-50
2023/09/05 00:24:31;;;;;;;3.88;3.67;;;;;;;-144.30;90.07;85136.03;5090560;28;20237;-57
2023/09/05 00:26:59;;;;;;;2.88;2.67;;;;;;;-144.30;89.84;85106.22;5073892;28;20253;-56
2023/09/05 00:29:27;;;;;;;3.35;3.15;;;;;;;-144.30;89.87;85130.06;5090358;28;20191;-57
2023/09/05 00:31:58;;;;;;;3.40;3.20;;;;;;;-144.30;89.94;85122.09;5090295;28;20199;-56
2023/09/05 00:34:26;;;;;;;3.50;3.20;;;;;;;-144.30;90.36;85126.09;5090448;28;20203;-56
2023/09/05 00:36:53;;;;;;;4.70;3.35;;;;;;;-144.30;90.26;84947.19;5090164;28;20637;-57
2023/09/05 00:39:19;;;;;;;3.55;3.35;;;;;;;-144.30;90.34;85169.81;5090008;28;20245;-51
2023/09/05 00:41:48;;;;;;;3.90;3.60;;;;;;;-144.30;90.78;85475.94;5090229;28;20195;-50
2023/09/05 00:44:15;;;;;;;5.35;3.22;;;;;;;-144.30;91.43;85165.84;5090296;28;20191;-49
2023/09/05 00:46:43;;;;;;;3.88;3.60;;;;;;;-144.30;92.16;85211.56;5090042;28;20614;-50
2023/09/05 00:49:12;;;;;;;3.92;3.63;;;;;;;-144.30;92.66;85195.66;5089923;28;20187;-48
2023/09/05 00:51:42;;;;;;;3.67;3.30;;;;;;;-144.30;92.72;85227.47;5089681;28;20203;-57
2023/09/05 00:54:09;;;;;;;3.72;3.47;;;;;;;-144.30;92.68;85203.59;5090127;28;20685;-49
2023/09/05 00:56:36;;;;;;;3.40;3.17;;;;;;;-144.30;92.60;85191.69;5089676;28;20206;-50
2023/09/05 00:59:06;;;;;;;4.10;3.70;;;;;;;-144.30;92.92;85187.69;5090203;28;20309;-50
2023/09/05 01:01:32;;;;;;;3.88;3.38;;;;;;;-144.30;93.11;85155.91;5090051;28;20586;-50
2023/09/05 01:03:59;;;;;;;3.65;3.45;;;;;;;-144.30;92.96;85185.72;5089878;28;20222;-51
2023/09/05 01:06:38;;;;;;;4.68;4.28;;;;;;;-144.30;93.24;85195.66;5090020;28;20578;-50
2023/09/05 01:09:19;;;;;;;4.15;3.65;;;;;;;-144.30;93.37;85197.66;5090196;28;20203;-57
2023/09/05 01:11:46;;;;;;;3.97;3.67;;;;;;;-144.30;93.72;85197.66;5089905;28;20594;-56
2023/09/05 01:14:14;;;;;;;5.40;3.78;;;;;;;-144.30;93.78;85213.53;5089544;28;20191;-50
2023/09/05 01:16:43;;;;;;;4.20;3.90;;;;;;;-144.30;93.89;85217.53;5089485;28;20195;-50
2023/09/05 01:19:12;;;;;;;4.45;4.15;;;;;;;-144.30;93.65;85201.63;5089731;28;20230;-51
2023/09/05 01:21:46;;;;;;;3.97;3.70;;;;;;;-144.30;93.74;85235.41;5089752;28;20294;-49
2023/09/05 01:24:17;;;;;;;3.97;3.67;;;;;;;-144.30;93.27;85223.47;5089619;28;20307;-56
2023/09/05 01:26:44;;;;;;;4.45;3.85;;;;;;;-144.30;93.44;85205.59;5089571;28;20199;-51
2023/09/05 01:29:15;;;;;;;4.32;3.78;;;;;;;-144.30;93.50;85199.63;5089467;28;20710;-56
2023/09/05 01:31:42;;;;;;;4.88;3.80;;;;;;;-144.30;93.40;85217.53;5089667;28;20195;-56
2023/09/05 01:34:09;;;;;;;4.32;3.92;;;;;;;-144.30;92.99;85185.72;5089678;28;20217;-56
2023/09/05 01:36:36;;;;;;;4.10;3.70;;;;;;;-144.30;92.88;85173.78;5089600;28;20195;-50
2023/09/05 01:39:03;;;;;;;3.65;3.45;;;;;;;-144.30;92.94;85173.78;5089556;28;20242;-50
2023/09/05 01:41:31;;;;;;;3.50;3.28;;;;;;;-144.30;93.20;85193.66;5089368;28;20202;-50
2023/09/05 01:43:58;;;;;;;4.95;3.80;;;;;;;-144.30;93.43;85157.88;5089265;28;20587;-56
2023/09/05 01:46:25;;;;;;;4.07;3.83;;;;;;;-144.30;93.91;85205.59;5089556;28;20203;-57
2023/09/05 01:48:52;;;;;;;6.43;3.72;;;;;;;-144.30;93.90;85209.56;5089253;28;20192;-51
2023/09/05 01:51:19;;;;;;;3.90;3.55;;;;;;;-144.30;94.13;85213.53;5089478;28;20195;-48
2023/09/05 01:53:46;;;;;;;4.85;3.80;;;;;;;-144.30;93.93;85165.84;5089332;28;20222;-50
2023/09/05 01:56:12;;;;;;;8.07;3.78;;;;;;;-144.30;93.75;85185.72;5089276;28;20203;-56
2023/09/05 01:58:41;;;;;;;6.22;4.15;;;;;;;-144.30;93.63;85181.75;5089391;28;20214;-57
2023/09/05 02:01:08;;;;;;;4.32;3.92;;;;;;;-144.30;93.16;85171.81;5089447;28;20199;-51
2023/09/05 02:03:35;;;;;;;4.22;3.92;;;;;;;-144.30;93.44;85197.66;5089331;28;20206;-51
2023/09/05 02:06:01;;;;;;;4.53;4.15;;;;;;;-144.30;93.64;85193.66;5089146;28;20206;-50
2023/09/05 02:08:28;;;;;;;4.70;4.30;;;;;;;-144.30;93.56;85185.72;5089168;28;20198;-51
2023/09/05 02:10:55;;;;;;;4.40;4.20;;;;;;;-144.30;93.37;85209.56;5089246;28;20195;-51
2023/09/05 02:13:22;;;;;;;7.65;4.45;;;;;;;-144.30;93.13;85165.84;5089084;28;20196;-50
2023/09/05 02:15:50;;;;;;;4.80;4.50;;;;;;;-144.30;93.37;85499.81;5089422;28;20196;-50
2023/09/05 02:18:17;;;;;;;5.00;4.32;;;;;;;-144.30;93.20;85237.41;5088945;28;20199;-50
2023/09/05 02:20:44;;;;;;;7.47;5.00;;;;;;;-144.30;93.12;85177.75;5089146;28;20191;-49
2023/09/05 02:23:11;;;;;;;10.32;4.85;;;;;;;-144.30;93.12;85197.66;5088965;28;20734;-49
2023/09/05 02:25:38;;;;;;;4.57;4.28;;;;;;;-144.30;93.13;85205.59;5090749;28;20203;-49
2023/09/05 02:28:05;;;;;;;8.57;4.93;;;;;;;-144.30;92.96;85179.75;5092727;28;20217;-49
2023/09/05 02:30:32;;;;;;;4.95;4.55;;;;;;;-144.30;92.65;85185.72;5092720;28;20199;-50
2023/09/05 02:33:00;;;;;;;5.55;4.40;;;;;;;-144.30;92.95;85219.50;5092850;28;20206;-57
2023/09/05 02:35:28;;;;;;;5.88;4.63;;;;;;;-144.30;93.15;85165.84;5102014;28;20194;-49
2023/09/05 02:37:56;;;;;;;10.75;4.97;;;;;;;-144.30;93.11;85140.00;5112885;28;20202;-48
2023/09/05 02:40:23;;;;;;;6.78;4.50;;;;;;;-144.30;92.69;85173.78;5112962;28;20241;-50
2023/09/05 02:42:50;;;;;;;5.38;4.88;;;;;;;-144.30;93.04;85177.75;5113196;28;20202;-50
2023/09/05 02:45:17;;;;;;;5.03;4.50;;;;;;;-144.30;92.76;85175.78;5113108;28;20205;-50
2023/09/05 02:47:44;;;;;;;4.97;4.50;;;;;;;-144.30;92.85;85173.78;5112964;28;20205;-49
2023/09/05 02:50:12;;;;;;;5.70;4.50;;;;;;;-144.30;92.68;85193.66;5112993;28;20583;-50
2023/09/05 02:52:39;;;;;;;4.60;4.30;;;;;;;-144.30;92.34;85153.91;5112751;28;20205;-57
2023/09/05 02:55:06;;;;;;;5.88;3.92;;;;;;;-144.30;92.17;85149.94;5112763;28;20195;-51
2023/09/05 02:57:33;;;;;;;4.60;4.30;;;;;;;-144.30;91.96;85181.75;5112587;28;20195;-56
2023/09/05 03:00:00;;;;;;;6.20;4.30;;;;;;;-144.30;91.65;85143.97;5112548;28;20305;-49
2023/09/05 03:02:27;;;;;;;8.65;4.70;;;;;;;-144.30;92.41;85128.06;5112448;28;20286;-48
2023/09/05 03:04:54;;;;;;;6.30;5.68;;;;;;;-144.30;92.99;85193.66;5112849;28;20198;-56
2023/09/05 03:07:23;;;;;;;6.55;4.40;;;;;;;-144.30;93.68;85149.94;5112472;28;20201;-50
2023/09/05 03:09:51;;;;;;;4.90;4.60;;;;;;;-144.30;94.32;85185.72;5112685;28;20195;-50
2023/09/05 03:12:18;;;;;;;5.38;4.90;;;;;;;-144.30;94.01;85185.72;5112604;28;20203;-50
2023/09/05 03:14:46;;;;;;;6.07;4.35;;;;;;;-144.30;94.36;85153.91;5112401;28;20194;-50
2023/09/05 03:17:13;;;;;;;8.63;6.15;;;;;;;-144.30;95.49;85165.84;5112540;28;20205;-58
2023/09/05 03:19:40;;;;;;;10.90;9.80;;;;;;;-144.30;96.03;85064.47;5112145;28;20222;-51
2023/09/05 03:22:07;;;;;;;5.43;5.00;;;;;;;-144.30;96.74;85217.53;5112334;28;20206;-58
2023/09/05 03:24:36;;;;;;;10.65;9.38;;;;;;;-144.30;97.45;85205.59;5111930;28;20778;-56
2023/09/05 03:27:04;;;;;;;6.25;5.15;;;;;;;-144.30;97.17;85221.50;5112069;28;20199;-57
2023/09/05 03:29:31;;;;;;;7.72;4.78;;;;;;;-144.30;97.04;85213.53;5111896;28;20290;-50
2023/09/05 03:31:58;;;;;;;6.82;6.32;;;;;;;-144.30;97.47;85217.53;5111799;28;20195;-50
2023/09/05 03:34:24;;;;;;;4.72;4.43;;;;;;;-144.30;97.72;85203.59;5110545;28;20202;-49
2023/09/05 03:36:51;;;;;;;5.35;4.88;;;;;;;-144.30;98.13;85221.50;5111714;28;20198;-50
2023/09/05 03:39:18;;;;;;;6.32;4.30;;;;;;;-144.30;98.66;85251.31;5107518;28;20604;-50
2023/09/05 03:41:46;;;;;;;12.00;10.70;;;;;;;-144.30;98.50;85181.75;5111802;28;20698;-56
2023/09/05 03:44:16;;;;;;;5.88;4.93;;;;;;;-144.30;98.29;85197.66;5111698;28;20194;-49
2023/09/05 03:46:43;;;;;;;6.00;5.22;;;;;;;-144.30;98.33;85253.31;5111335;28;20583;-56
2023/09/05 03:49:11;;;;;;;6.63;6.10;;;;;;;-144.30;98.27;85217.53;5111366;28;20199;-57
2023/09/05 03:51:37;;;;;;;7.97;7.28;;;;;;;-144.30;97.96;85175.78;5110489;28;20214;-51
2023/09/05 03:54:04;;;;;;;5.38;4.88;;;;;;;-144.30;98.13;85213.53;5110443;28;20710;-57
2023/09/05 03:56:31;;;;;;;5.75;5.20;;;;;;;-144.30;98.55;85235.41;5110868;28;20190;-52
2023/09/05 03:59:00;;;;;;;5.22;4.72;;;;;;;-144.30;98.90;85241.38;5111312;28;20218;-57
2023/09/05 04:01:27;;;;;;;6.10;5.60;;;;;;;-144.30;99.08;85201.63;5111292;28;20230;-56
2023/09/05 04:03:53;;;;;;;6.47;4.97;;;;;;;-144.30;98.79;85207.59;5111406;28;20198;-47
2023/09/05 04:06:20;;;;;;;5.82;5.43;;;;;;;-144.30;99.31;85249.34;5111246;28;20191;-54
2023/09/05 04:08:47;;;;;;;6.65;5.50;;;;;;;-144.30;99.17;85213.53;5111385;28;20194;-49
2023/09/05 04:11:14;;;;;;;5.10;4.70;;;;;;;-144.30;99.36;85187.69;5111365;28;20286;-50
2023/09/05 04:13:41;;;;;;;5.00;4.55;;;;;;;-144.30;98.21;85169.81;5110920;28;20194;-49
2023/09/05 04:16:09;;;;;;;4.75;4.40;;;;;;;-144.30;97.65;85189.69;5111147;28;20190;-49
2023/09/05 04:18:36;;;;;;;4.45;4.15;;;;;;;-144.30;97.48;85201.63;5109523;28;20285;-55
2023/09/05 04:21:03;;;;;;;4.25;3.95;;;;;;;-144.30;96.95;85189.69;5093364;28;20219;-49
2023/09/05 04:23:30;;;;;;;4.20;3.90;;;;;;;-144.30;96.34;85205.59;5088885;28;20227;-49
2023/09/05 04:25:59;;;;;;;3.75;3.55;;;;;;;-144.30;95.98;85197.66;5089635;28;20210;-49
2023/09/05 04:28:27;;;;;;;3.83;3.53;;;;;;;-144.30;96.26;85171.81;5088964;28;20199;-56
2023/09/05 04:30:55;;;;;;;3.40;3.20;;;;;;;-144.30;95.91;85201.63;5089981;28;20195;-56
2023/09/05 04:33:27;;;;;;;3.92;3.67;;;;;;;-144.30;95.83;85165.84;5108082;28;20202;-56
2023/09/05 04:35:53;;;;;;;3.50;3.30;;;;;;;-144.30;95.91;85147.94;5110716;28;20198;-56
2023/09/05 04:38:23;;;;;;;4.13;3.88;;;;;;;-144.30;95.63;85193.66;5110952;28;20705;-55
2023/09/05 04:40:49;;;;;;;4.03;3.65;;;;;;;-144.30;95.41;85159.88;5110330;28;20218;-56
2023/09/05 04:43:16;;;;;;;8.85;4.60;;;;;;;-144.30;95.72;85159.88;5110439;28;20571;-55
2023/09/05 04:45:52;;;;;;;4.60;4.22;;;;;;;-144.30;95.76;85157.88;5110056;28;20579;-56
2023/09/05 04:48:19;;;;;;;3.78;3.58;;;;;;;-144.30;96.44;85130.06;5089724;28;20626;-49
2023/09/05 04:50:47;;;;;;;4.15;3.75;;;;;;;-144.30;96.70;85179.75;5089944;28;20195;-48
2023/09/05 04:53:14;;;;;;;4.97;4.47;;;;;;;-144.30;96.22;85165.84;5089967;28;20199;-50
2023/09/05 04:55:42;;;;;;;7.82;7.03;;;;;;;-144.30;95.95;85169.81;5090190;28;20199;-49
2023/09/05 04:58:09;;;;;;;9.05;8.10;;;;;;;-144.30;95.95;85141.97;5089993;28;20294;-56
2023/09/05 05:00:35;;;;;;;4.70;4.03;;;;;;;-144.30;95.85;85149.94;5089764;28;20234;-50
2023/09/05 05:03:02;;;;;;;4.40;4.07;;;;;;;-144.30;95.57;84943.22;5097422;28;20205;-50
2023/09/05 05:05:29;;;;;;;8.13;6.38;;;;;;;-144.30;95.47;85122.09;5105603;28;20201;-49
2023/09/05 05:07:57;;;;;;;4.30;4.00;;;;;;;-144.30;95.60;85136.03;5103971;28;20197;-50
2023/09/05 05:10:24;;;;;;;4.88;4.43;;;;;;;-144.30;95.83;85110.19;5106183;28;20205;-48
2023/09/05 05:12:51;;;;;;;4.13;3.78;;;;;;;-144.30;95.34;85149.94;5109629;28;20191;-50
2023/09/05 05:15:18;;;;;;;5.93;5.43;;;;;;;-144.30;96.01;85145.97;5110218;28;20191;-48
2023/09/05 05:17:45;;;;;;;4.47;3.70;;;;;;;-144.30;96.16;85193.66;5110001;28;20198;-49
2023/09/05 05:20:18;;;;;;;5.03;4.55;;;;;;;-144.30;96.12;85143.97;5103381;28;20241;-50
2023/09/05 05:22:45;;;;;;;3.60;3.40;;;;;;;-144.30;96.26;85132.03;5089898;28;20242;-56
2023/09/05 05:25:13;;;;;;;6.70;5.55;;;;;;;-144.30;96.42;85153.91;5089425;28;20201;-50
2023/09/05 05:27:40;;;;;;;7.38;3.47;;;;;;;-144.30;96.53;85149.94;5104106;28;20241;-56
2023/09/05 05:30:08;;;;;;;3.67;3.47;;;;;;;-144.30;96.13;85130.06;5089039;28;20690;-55
2023/09/05 05:32:35;;;;;;;5.05;3.65;;;;;;;-144.30;95.96;85122.09;5088769;28;20212;-57
2023/09/05 05:35:02;;;;;;;4.70;3.78;;;;;;;-144.30;96.21;85157.88;5104333;28;20593;-49
2023/09/05 05:37:29;;;;;;;4.00;3.47;;;;;;;-144.30;97.03;85138.00;5109069;28;20190;-49
2023/09/05 05:39:56;;;;;;;4.55;4.07;;;;;;;-144.30;98.18;85132.03;5109305;28;20828;-49
2023/09/05 05:42:24;;;;;;;6.53;5.43;;;;;;;-144.30;98.28;85138.00;5109475;28;20202;-49
2023/09/05 05:44:51;;;;;;;4.95;4.47;;;;;;;-144.30;98.16;85124.09;5109250;28;20205;-55
2023/09/05 05:47:18;;;;;;;4.90;4.60;;;;;;;-144.30;98.21;85096.25;5109158;28;20212;-55
2023/09/05 05:49:45;;;;;;;5.47;4.07;;;;;;;-144.30;97.96;85122.09;5108872;28;20199;-56
2023/09/05 05:52:12;;;;;;;4.35;4.05;;;;;;;-144.30;97.63;85110.19;5109406;28;20198;-48
2023/09/05 05:54:39;;;;;;;6.32;4.70;;;;;;;-144.30;97.29;85116.16;5108910;28;20198;-48
2023/09/05 05:57:06;;;;;;;4.55;3.85;;;;;;;-144.30;97.47;85130.06;5108545;28;20598;-56
2023/09/05 05:59:34;;;;;;;6.65;3.92;;;;;;;-144.30;97.55;85094.28;5109162;28;20198;-55
2023/09/05 06:02:01;;;;;;;4.05;3.75;;;;;;;-144.30;97.32;85116.16;5092238;28;20202;-56
2023/09/05 06:04:28;;;;;;;4.43;4.13;;;;;;;-144.30;98.25;85157.88;5092203;28;20199;-55
2023/09/05 06:06:55;;;;;;;4.70;4.30;;;;;;;-144.30;98.67;85096.25;5092393;28;20196;-55
2023/09/05 06:09:22;;;;;;;4.43;3.97;;;;;;;-144.30;98.31;85022.72;5092717;28;20702;-55
2023/09/05 06:11:49;;;;;;;4.53;4.05;;;;;;;-144.30;98.18;85106.22;5092746;28;20198;-55
2023/09/05 06:14:16;;;;;;;4.85;4.43;;;;;;;-144.30;97.59;85090.31;5092282;28;20209;-55
2023/09/05 06:16:46;;;;;;;4.57;4.28;;;;;;;-144.30;97.66;85038.63;5091927;28;20205;-55
2023/09/05 06:19:14;;;;;;;6.28;4.25;;;;;;;-144.30;97.43;84963.09;5092534;28;20589;-55
2023/09/05 06:21:46;;;;;;;5.57;4.30;;;;;;;-144.30;97.32;85022.72;5092059;28;20231;-56
2023/09/05 06:24:13;;;;;;;4.72;4.50;;;;;;;-144.30;96.88;85044.59;5091889;28;20722;-56
2023/09/05 06:26:41;;;;;;;8.70;8.02;;;;;;;-144.30;96.59;84722.59;5091883;28;20206;-49
2023/09/05 06:29:08;;;;;;;6.05;5.65;;;;;;;-144.30;96.93;85024.72;5091998;28;20199;-49
2023/09/05 06:31:35;;;;;;;5.13;4.72;;;;;;;-144.30;96.63;85006.81;5102535;28;20203;-56
2023/09/05 06:34:04;;;;;;;8.00;7.32;;;;;;;-144.30;96.53;85060.50;5111739;28;20253;-56
2023/09/05 06:36:31;;;;;;;7.57;6.50;;;;;;;-144.30;96.08;84998.88;5111506;28;20194;-49
2023/09/05 06:38:58;;;;;;;15.85;12.65;;;;;;;-144.30;94.95;84969.06;5111068;28;20213;-56
2023/09/05 06:41:25;;;;;;;11.90;7.85;;;;;;;-144.30;94.41;84967.06;5109814;28;20218;-56
2023/09/05 06:43:52;;;;;;;8.93;6.65;;;;;;;-144.30;94.73;84979.00;5108424;28;20195;-56
2023/09/05 06:46:19;;;;;;;10.80;8.77;;;;;;;-144.30;94.36;85012.78;5112201;28;20294;-57
2023/09/05 06:48:46;;;;;;;8.18;5.00;;;;;;;-144.30;94.05;84996.88;5111831;28;20199;-56
2023/09/05 06:51:14;;;;;;;5.50;5.05;;;;;;;-144.30;94.60;85024.72;5112031;28;20195;-50
2023/09/05 06:53:41;;;;;;;5.97;5.40;;;;;;;-144.30;94.16;85004.84;5111749;28;20190;-56
2023/09/05 06:56:08;;;;;;;5.80;5.25;;;;;;;-144.30;94.19;85034.66;5111866;28;20586;-56
2023/09/05 06:58:35;;;;;;;5.88;5.38;;;;;;;-144.30;94.63;85066.44;5111011;28;20218;-56
2023/09/05 07:01:06;;;;;;;5.05;4.75;;;;;;;-144.30;95.51;85050.53;5105966;28;20272;-49
2023/09/05 07:03:33;;;;;;;6.05;5.57;;;;;;;-144.30;95.56;85096.25;5111104;28;20202;-56
2023/09/05 07:06:04;;;;;;;9.20;8.32;;;;;;;-144.30;95.69;85102.22;5111754;28;20287;-56
2023/09/05 07:08:32;;;;;;;4.63;4.32;;;;;;;-144.30;95.00;85082.34;5100155;28;20202;-56
2023/09/05 07:10:59;;;;;;;5.68;5.20;;;;;;;-144.30;95.57;85104.22;5110557;28;20207;-56
2023/09/05 07:13:26;;;;;;;6.03;5.53;;;;;;;-144.30;96.00;85112.16;5111568;28;20198;-49
2023/09/05 07:15:53;;;;;;;5.75;5.35;;;;;;;-144.30;97.90;85138.00;5111031;28;20213;-57
2023/09/05 07:18:20;;;;;;;7.18;6.15;;;;;;;-144.30;98.34;85149.94;5111508;28;20585;-57
2023/09/05 07:20:47;;;;;;;5.90;5.40;;;;;;;-144.30;99.27;85173.78;5111381;28;20702;-57
2023/09/05 07:23:14;;;;;;;6.05;5.65;;;;;;;-144.30;99.76;85179.75;5111274;28;20226;-57
2023/09/05 07:25:42;;;;;;;6.93;5.88;;;;;;;-144.30;99.83;85209.56;5110823;28;20198;-49
2023/09/05 07:28:10;;;;;;;6.88;6.28;;;;;;;-144.30;100.00;85229.44;5111443;28;20659;-50
2023/09/05 07:30:36;;;;;;;8.40;6.20;;;;;;;-144.30;100.00;85209.56;5110780;28;20190;-50
2023/09/05 07:33:04;;;;;;;6.97;6.38;;;;;;;-144.30;100.00;85233.44;5111164;28;20285;-49
2023/09/05 07:35:31;;;;;;;7.53;6.60;;;;;;;-144.30;100.00;85193.66;5111045;28;20563;-49
2023/09/05 07:37:58;;;;;;;6.57;5.95;;;;;;;-144.30;100.00;85161.88;5111167;28;20198;-56
2023/09/05 07:40:26;;;;;;;6.80;6.20;;;;;;;-144.30;100.00;85189.69;5111238;28;20763;-56
2023/09/05 07:42:55;;;;;;;6.45;5.95;;;;;;;-144.30;100.00;85201.63;5096775;28;20203;-56
2023/09/05 07:45:24;;;;;;;6.38;5.88;;;;;;;-144.30;100.00;85189.69;5101789;28;20559;-56
2023/09/05 07:47:52;;;;;;;7.32;6.53;;;;;;;-144.30;99.98;85197.66;5110872;28;20202;-49
2023/09/05 07:50:19;;;;;;;7.10;6.50;;;;;;;-144.30;99.54;85209.56;5110902;28;20276;-57
2023/09/05 07:52:47;;;;;;;7.03;6.53;;;;;;;-144.30;99.76;85060.50;5099011;28;20207;-50
2023/09/05 07:55:14;;;;;;;7.07;6.47;;;;;;;-144.30;99.07;85134.03;5089357;28;20691;-56
2023/09/05 07:57:41;;;;;;;7.95;7.25;;;;;;;-144.30;99.26;85161.88;5088766;28;20198;-50
2023/09/05 08:00:14;;;;;;;9.40;6.80;;;;;;;-144.30;98.76;85161.88;5090284;28;20207;-50
2023/09/05 08:02:41;;;;;;;7.00;6.35;;;;;;;-144.30;98.13;85145.97;5090242;28;20692;-56
2023/09/05 08:05:09;;;;;;;8.10;7.20;;;;;;;-144.30;98.86;85147.94;5089945;28;20218;-49
2023/09/05 08:07:37;;;;;;;8.43;7.82;;;;;;;-144.30;98.42;85126.09;5089592;28;20206;-49
2023/09/05 08:10:05;;;;;;;8.75;7.38;;;;;;;-144.30;97.68;85110.19;5090187;28;20199;-56
2023/09/05 08:12:31;;;;;;;7.68;7.07;;;;;;;-144.30;97.50;85104.22;5089908;28;20196;-50
2023/09/05 08:14:58;;;;;;;10.48;7.65;;;;;;;-144.30;97.48;85110.19;5090158;28;20209;-50
2023/09/05 08:17:27;;;;;;;8.27;7.38;;;;;;;-144.30;96.94;85100.25;5089702;28;20199;-51
2023/09/05 08:19:54;;;;;;;7.65;7.10;;;;;;;-144.30;96.66;85082.34;5097626;28;20228;-49
2023/09/05 08:22:21;;;;;;;9.13;8.27;;;;;;;-144.30;95.97;85012.78;5108036;28;20241;-49
2023/09/05 08:24:49;;;;;;;10.82;8.50;;;;;;;-144.30;94.67;84986.94;5109999;28;20198;-50
2023/09/05 08:27:15;;;;;;;9.40;8.50;;;;;;;-144.30;93.42;84883.59;5110197;28;20217;-57
2023/09/05 08:29:42;;;;;;;9.38;8.38;;;;;;;-144.30;92.42;84877.63;5109654;28;20187;-56
2023/09/05 08:32:09;;;;;;;7.90;7.40;;;;;;;-144.30;89.35;84758.38;5108975;28;20190;-56
2023/09/05 08:34:38;;;;;;;10.02;8.90;;;;;;;-144.30;86.42;84529.81;5108937;28;20280;-57
2023/09/05 08:37:05;;;;;;;7.85;7.00;;;;;;;-144.30;82.61;84386.72;5109988;28;20212;-57
2023/09/05 08:39:32;;;;;;;6.57;6.07;;;;;;;-144.30;77.44;84060.78;5110062;28;20577;-56
2023/09/05 08:42:01;;;;;;;6.13;5.53;;;;;;;-144.30;71.55;83893.88;5109575;28;20218;-51
2023/09/05 08:44:28;;;;;;;7.15;6.28;;;;;;;-144.30;67.54;83742.88;5109987;28;20194;-51
2023/09/05 08:46:55;;;;;;;7.70;7.10;;;;;;;-144.30;66.24;83669.34;5109792;28;20205;-52
2023/09/05 08:49:22;;;;;;;7.60;7.00;;;;;;;-144.30;59.28;83411.06;5109714;28;20194;-50
2023/09/05 08:51:56;;;;;;;6.13;5.70;;;;;;;-144.30;56.30;83196.47;5109635;28;20198;-51
2023/09/05 08:54:25;;;;;;;5.95;5.57;;;;;;;-144.30;54.79;83180.59;5109822;28;20198;-57
2023/09/05 08:56:52;;;;;;;6.25;5.65;;;;;;;-144.30;54.37;83134.91;5109748;28;20195;-57
2023/09/05 08:59:19;;;;;;;5.15;4.85;;;;;;;-144.30;51.21;82886.56;5109489;28;20194;-51
2023/09/05 09:01:46;;;;;;;5.57;5.18;;;;;;;-144.30;49.29;82703.81;5109428;28;20226;-51
2023/09/05 09:04:14;;;;;;;5.70;5.30;;;;;;;-144.30;46.55;82527.03;5109825;28;20190;-58
2023/09/05 09:06:43;;;;;;;5.47;5.05;;;;;;;-144.30;47.18;82638.28;5109490;28;20742;-57
2023/09/05 09:09:38;;;;;;;6.25;5.68;;;;;;;-144.30;46.06;82471.44;5109503;28;20639;-51
2023/09/05 09:12:05;;;;;;;5.55;5.05;;;;;;;-144.30;44.89;82292.66;5107124;28;20236;-58
2023/09/05 09:14:32;;;;;;;4.80;4.50;;;;;;;-144.30;44.67;82425.75;5104399;28;20198;-57
2023/09/05 09:17:01;;;;;;;5.88;5.47;;;;;;;-144.30;46.02;82670.06;5107656;28;20219;-57
2023/09/05 09:19:29;;;;;;;6.10;5.70;;;;;;;-144.30;48.90;82968.03;5108196;28;20198;-57
2023/09/05 09:22:00;;;;;;;6.75;6.35;;;;;;;-144.30;51.95;83315.69;5106374;28;20219;-51
2023/09/05 09:24:33;;;;;;;6.25;5.72;;;;;;;-144.30;54.96;83575.97;5106834;27;20226;-50
2023/09/05 09:27:03;;;;;;;6.55;5.80;;;;;;;-144.30;57.21;83732.94;5095392;28;20699;-51
2023/09/05 09:29:30;;;;;;;6.80;6.40;;;;;;;-144.30;59.41;83794.53;5107276;28;20578;-51
2023/09/05 09:32:03;;;;;;;8.48;6.38;;;;;;;-144.30;60.49;83877.97;5107066;28;20207;-57
2023/09/05 09:34:31;;;;;;;7.28;6.80;;;;;;;-144.30;60.87;83921.69;5106350;28;20234;-50
2023/09/05 09:36:58;;;;;;;7.10;6.57;;;;;;;-144.30;62.95;84007.16;5108382;28;20708;-51
2023/09/05 09:39:25;;;;;;;7.90;7.15;;;;;;;-144.30;64.81;84064.78;5109005;28;20202;-57
2023/09/05 09:41:52;;;;;;;7.95;7.35;;;;;;;-144.30;64.14;84120.41;5109258;28;20673;-50
2023/09/05 09:44:28;;;;;;;8.23;7.43;;;;;;;-144.30;64.25;84086.63;5109318;28;20572;-50
2023/09/05 09:46:56;;;;;;;7.53;7.03;;;;;;;-144.30;65.59;84118.41;5108899;28;20189;-57
2023/09/05 09:49:25;;;;;;;8.07;7.53;;;;;;;-144.30;65.17;84076.69;5108449;28;20213;-58
2023/09/05 09:51:57;;;;;;;7.53;6.95;;;;;;;-144.30;64.60;84098.56;5106117;28;20186;-58
2023/09/05 09:54:31;;;;;;;7.80;7.05;;;;;;;-144.30;64.99;84136.31;5108971;28;20719;-58
2023/09/05 09:57:01;;;;;;;8.32;7.53;;;;;;;-144.30;65.06;84211.81;5107051;28;20807;-52
2023/09/05 09:59:35;;;;;;;7.88;7.22;;;;;;;-144.30;66.27;84233.69;5108265;28;20195;-50
2023/09/05 10:02:07;;;;;;;7.60;7.00;;;;;;;-144.30;66.27;84229.72;5108381;28;20702;-51
2023/09/05 10:04:34;;;;;;;7.60;7.00;;;;;;;-144.30;66.08;84158.16;5106052;28;20190;-51
2023/09/05 10:07:02;;;;;;;8.05;7.32;;;;;;;-144.30;65.64;84116.44;5108456;28;20194;-51
2023/09/05 10:09:30;;;;;;;7.90;7.15;;;;;;;-144.30;66.68;84182.00;5108164;28;20609;-50
2023/09/05 10:12:01;;;;;;;9.30;8.07;;;;;;;-144.30;67.21;84140.28;5108575;28;20194;-50
2023/09/05 10:14:31;;;;;;;8.35;7.60;;;;;;;-144.30;65.43;84032.97;5108233;28;20290;-50
2023/09/05 10:16:59;;;;;;;8.35;7.78;;;;;;;-144.30;64.98;84064.78;5108909;28;20217;-57
2023/09/05 10:19:26;;;;;;;9.77;8.98;;;;;;;-144.30;64.60;84003.16;5108386;28;20205;-52
2023/09/05 10:21:55;;;;;;;7.78;7.25;;;;;;;-144.30;62.93;83983.28;5108728;28;20633;-57
2023/09/05 10:24:24;;;;;;;8.43;7.85;;;;;;;-144.30;63.71;84072.72;5108580;28;20232;-57
2023/09/05 10:26:50;;;;;;;8.10;7.38;;;;;;;-144.30;63.41;84074.72;5108325;28;20345;-50
2023/09/05 10:29:35;;;;;;;7.63;7.13;;;;;;;-144.30;63.60;84078.69;5108409;28;20195;-51
2023/09/05 10:32:02;;;;;;;13.73;7.97;;;;;;;-144.30;64.28;84068.75;5108620;28;20205;-58
2023/09/05 10:34:55;;;;;;;8.15;7.63;;;;;;;-144.30;63.62;84166.13;5108298;28;20195;-58
2023/09/05 10:37:26;;;;;;;9.32;8.63;;;;;;;-144.30;64.03;84044.91;5108171;28;20199;-58
2023/09/05 10:39:55;;;;;;;8.15;7.38;;;;;;;-144.30;61.88;84124.38;5108873;28;20226;-57
2023/09/05 10:42:28;;;;;;;8.43;7.63;;;;;;;-144.30;60.20;84168.09;5108555;28;20222;-50
2023/09/05 10:44:58;;;;;;;8.23;7.63;;;;;;;-144.30;60.31;84168.09;5108417;28;20205;-57
2023/09/05 10:47:27;;;;;;;9.05;8.20;;;;;;;-144.30;62.19;84154.19;5110798;28;20212;-57
2023/09/05 10:49:58;;;;;;;8.63;7.82;;;;;;;-144.30;61.11;84201.88;5111804;28;20263;-50
2023/09/05 10:52:27;;;;;;;10.20;7.82;;;;;;;-144.30;60.26;84203.88;5111877;28;20240;-51
2023/09/05 10:54:54;;;;;;;8.77;7.97;;;;;;;-144.30;60.33;84223.75;5112003;28;20194;-51
2023/09/05 10:57:34;;;;;;;8.82;8.10;;;;;;;-144.30;61.30;84215.78;5111769;28;20221;-50
2023/09/05 11:00:10;;;;;;;8.60;7.90;;;;;;;-144.30;61.09;84245.59;5111678;28;20289;-50
2023/09/05 11:02:40;;;;;;;9.18;7.60;;;;;;;-144.30;60.98;84187.97;5111621;28;20218;-50
2023/09/05 11:05:12;;;;;;;8.35;7.65;;;;;;;-144.30;62.17;84273.44;5111404;28;20197;-56
2023/09/05 11:07:42;;;;;;;7.72;7.05;;;;;;;-144.30;61.70;84251.56;5111450;28;20279;-57
2023/09/05 11:10:11;;;;;;;8.30;7.70;;;;;;;-144.30;61.46;84255.53;5112228;28;20209;-57
2023/09/05 11:12:39;;;;;;;9.93;7.47;;;;;;;-144.30;61.08;84275.41;5111903;28;20199;-49
2023/09/05 11:15:09;;;;;;;8.05;7.25;;;;;;;-144.30;60.67;84331.06;5111599;28;20191;-49
2023/09/05 11:17:37;;;;;;;8.05;7.38;;;;;;;-144.30;60.85;84269.47;5111536;28;20229;-57
2023/09/05 11:20:08;;;;;;;12.10;7.47;;;;;;;-144.30;61.20;84267.47;5111726;28;20581;-51
2023/09/05 11:22:35;;;;;;;11.85;7.68;;;;;;;-144.30;61.58;84323.13;5111176;28;20258;-54